Time;durP1;ratioP1;P1;durP2;ratioP2;P2;SDS_P1;SDS_P2;PMS_P1;PMS_P2;Temp;Humidity;BMP_temperature;BMP_pressure;BME280_temperature;BME280_humidity;BME280_pressure;Samples;Min_cycle;Max_cycle;Signal;HPM_P1;HPM_P2
2023/06/27 00:02:15;;;;;;;6.18;1.60;;;;;;;23.75;49.29;98503.31;5054017;28;20534;-74
2023/06/27 00:04:41;;;;;;;3.58;1.67;;;;;;;23.72;49.59;98505.53;5053868;28;20056;-69
2023/06/27 00:07:10;;;;;;;3.38;1.65;;;;;;;23.69;49.51;98496.13;5055106;28;20400;-69
2023/06/27 00:09:36;;;;;;;4.07;1.70;;;;;;;23.66;49.64;98501.88;5055021;28;20491;-69
2023/06/27 00:12:01;;;;;;;2.92;1.85;;;;;;;23.63;49.78;98505.78;5037066;28;20110;-69
2023/06/27 00:14:27;;;;;;;4.25;1.50;;;;;;;23.66;49.25;98491.22;5053925;28;20041;-69
2023/06/27 00:16:52;;;;;;;3.85;1.73;;;;;;;23.67;49.13;98495.50;5054837;28;20037;-69
2023/06/27 00:19:19;;;;;;;3.67;1.65;;;;;;;23.64;48.78;98493.25;5054734;28;20040;-69
2023/06/27 00:21:44;;;;;;;4.95;1.90;;;;;;;23.66;48.90;98500.03;5053412;28;20028;-69
2023/06/27 00:24:10;;;;;;;5.43;1.90;;;;;;;23.61;48.78;98488.34;5055020;28;20025;-69
2023/06/27 00:26:35;;;;;;;3.45;1.60;;;;;;;23.63;48.66;98500.44;5036537;28;20541;-69
2023/06/27 00:29:01;;;;;;;2.55;1.80;;;;;;;23.58;48.68;98492.25;5053335;28;20492;-68
2023/06/27 00:31:26;;;;;;;3.33;1.67;;;;;;;23.61;48.56;98499.84;5053353;28;20094;-69
2023/06/27 00:33:52;;;;;;;4.60;1.52;;;;;;;23.60;48.29;98500.03;5053313;28;20040;-69
2023/06/27 00:36:17;;;;;;;3.53;1.65;;;;;;;23.57;48.41;98503.94;5053116;28;20029;-69
2023/06/27 00:38:43;;;;;;;4.40;1.80;;;;;;;23.54;48.31;98495.53;5020165;28;20061;-69
2023/06/27 00:41:08;;;;;;;4.03;1.90;;;;;;;23.48;48.28;98487.34;5020247;28;20029;-69
2023/06/27 00:43:34;;;;;;;2.63;1.50;;;;;;;23.47;48.34;98492.88;5054483;28;20025;-69
2023/06/27 00:46:05;;;;;;;2.92;1.70;;;;;;;23.47;48.62;98492.88;5036805;28;20040;-69
2023/06/27 00:48:31;;;;;;;4.47;1.70;;;;;;;23.47;48.75;98493.69;5053095;28;20056;-68
2023/06/27 00:50:56;;;;;;;3.00;1.45;;;;;;;23.49;48.89;98504.97;5053213;28;20066;-68
2023/06/27 00:53:22;;;;;;;3.75;1.80;;;;;;;23.50;48.83;98495.16;5036692;28;20159;-69
2023/06/27 00:55:47;;;;;;;3.40;1.77;;;;;;;23.49;48.76;98493.50;5052855;28;20037;-70
2023/06/27 00:58:13;;;;;;;7.53;1.90;;;;;;;23.54;49.12;98503.53;5019778;28;20041;-70
2023/06/27 01:00:38;;;;;;;2.92;1.75;;;;;;;23.48;49.05;98503.34;5036452;28;20025;-69
2023/06/27 01:03:04;;;;;;;3.03;1.70;;;;;;;23.36;49.40;98499.66;5052910;28;20037;-70
2023/06/27 01:05:29;;;;;;;4.95;1.77;;;;;;;23.38;48.98;98494.94;5036507;28;20039;-69
2023/06/27 01:07:57;;;;;;;4.88;1.98;;;;;;;23.35;49.33;98500.66;5052748;28;20079;-70
2023/06/27 01:10:29;;;;;;;5.10;1.83;;;;;;;23.39;49.38;98507.22;5019657;28;20033;-70
2023/06/27 01:13:10;;;;;;;2.42;1.70;;;;;;;23.37;49.46;98503.97;5052497;28;20063;-70
2023/06/27 01:15:36;;;;;;;5.05;1.88;;;;;;;23.36;49.66;98498.84;5019558;28;20581;-70
2023/06/27 01:18:02;;;;;;;5.28;1.95;;;;;;;23.40;49.83;98510.72;5052488;28;20499;-69
2023/06/27 01:20:27;;;;;;;3.92;1.95;;;;;;;23.43;49.84;98508.44;5035925;28;20029;-69
2023/06/27 01:23:17;;;;;;;4.30;1.85;;;;;;;23.44;49.83;98510.09;5035875;28;20032;-70
2023/06/27 01:25:43;;;;;;;5.78;1.80;;;;;;;23.41;49.83;98497.19;5020599;28;20132;-70
2023/06/27 01:28:14;;;;;;;4.53;1.98;;;;;;;23.44;49.89;98501.28;5035354;28;20045;-70
2023/06/27 01:30:40;;;;;;;2.70;1.65;;;;;;;23.38;49.81;98502.13;5036604;28;20128;-70
2023/06/27 01:33:21;;;;;;;3.65;1.90;;;;;;;23.30;50.34;98497.81;5035618;28;20037;-70
2023/06/27 01:36:11;;;;;;;4.88;2.08;;;;;;;23.26;50.48;98501.91;5036013;28;20025;-70
2023/06/27 01:38:51;;;;;;;3.88;2.28;;;;;;;23.23;50.59;98505.81;4998248;28;20440;-70
2023/06/27 01:41:18;;;;;;;6.35;2.28;;;;;;;23.15;50.98;98503.34;4999090;28;20432;-70
2023/06/27 01:43:44;;;;;;;4.95;2.05;;;;;;;23.09;51.09;98498.84;5014487;28;20385;-70
2023/06/27 01:46:09;;;;;;;5.50;2.20;;;;;;;23.04;51.39;98493.25;4998416;28;20029;-69
2023/06/27 01:48:36;;;;;;;4.70;2.35;;;;;;;23.02;51.46;98495.31;5014576;28;20521;-70
2023/06/27 01:51:05;;;;;;;8.82;2.42;;;;;;;23.04;51.60;98506.56;4981942;28;20519;-69
2023/06/27 01:53:30;;;;;;;5.55;2.53;;;;;;;23.02;51.63;98497.97;4982069;28;20086;-70
2023/06/27 01:55:56;;;;;;;5.53;2.53;;;;;;;23.01;51.76;98494.50;5014649;28;20049;-69
2023/06/27 01:58:22;;;;;;;6.50;2.38;;;;;;;23.07;51.67;98496.34;4998054;28;20480;-69
2023/06/27 02:00:49;;;;;;;7.20;2.50;;;;;;;23.12;51.65;98501.91;5014208;28;20048;-70
2023/06/27 02:03:14;;;;;;;7.37;2.70;;;;;;;23.08;51.67;98490.00;5014291;28;20493;-71
2023/06/27 02:05:40;;;;;;;5.70;2.17;;;;;;;23.06;51.83;98500.03;5014316;28;20056;-70
2023/06/27 02:08:05;;;;;;;8.80;2.15;;;;;;;23.01;51.73;98491.00;5030585;28;20041;-75
2023/06/27 02:10:31;;;;;;;4.85;2.42;;;;;;;23.00;51.76;98494.69;4997925;28;20496;-76
2023/06/27 02:12:56;;;;;;;5.05;2.53;;;;;;;22.95;51.80;98496.13;5030520;28;20029;-76
2023/06/27 02:15:22;;;;;;;8.75;2.80;;;;;;;23.01;51.72;98498.97;5011000;28;20040;-76
2023/06/27 02:17:47;;;;;;;4.90;2.67;;;;;;;22.95;51.97;98493.44;5035138;28;20037;-76
2023/06/27 02:20:13;;;;;;;9.63;3.00;;;;;;;22.97;52.01;98498.56;5034477;28;20078;-76
2023/06/27 02:22:38;;;;;;;6.38;2.50;;;;;;;22.92;52.22;98495.72;5051127;28;20032;-76
2023/06/27 02:25:04;;;;;;;6.95;2.40;;;;;;;22.90;52.24;98493.25;5051452;28;20074;-76
2023/06/27 02:27:30;;;;;;;6.15;2.50;;;;;;;22.90;52.29;98493.25;5034660;28;20566;-76
2023/06/27 02:29:55;;;;;;;4.53;2.22;;;;;;;22.86;52.01;98496.50;5050967;28;20107;-76
2023/06/27 02:32:21;;;;;;;5.03;2.17;;;;;;;22.87;52.07;98500.81;5052224;28;20067;-76
2023/06/27 02:34:46;;;;;;;6.70;2.42;;;;;;;22.90;52.01;98500.41;5051011;28;20068;-76
2023/06/27 02:37:11;;;;;;;3.72;2.22;;;;;;;22.89;51.82;98496.91;5034633;28;20037;-76
2023/06/27 02:39:37;;;;;;;6.43;2.60;;;;;;;22.91;51.83;98500.22;5017985;28;20174;-76
2023/06/27 02:42:03;;;;;;;6.43;2.30;;;;;;;22.89;51.68;98496.91;5050786;28;20029;-76
2023/06/27 02:44:28;;;;;;;6.20;2.28;;;;;;;22.88;51.96;98503.28;5017391;28;20080;-76
2023/06/27 02:46:54;;;;;;;6.45;2.30;;;;;;;22.88;51.66;98500.63;5050298;28;20039;-76
2023/06/27 02:49:19;;;;;;;10.38;2.45;;;;;;;22.85;51.58;98501.03;5050891;28;20029;-76
2023/06/27 02:51:45;;;;;;;6.20;2.47;;;;;;;22.85;51.76;98502.84;5050609;28;20091;-76
2023/06/27 02:54:10;;;;;;;3.67;2.22;;;;;;;22.78;51.54;98500.19;5034457;28;20032;-76
2023/06/27 02:56:36;;;;;;;4.57;2.00;;;;;;;22.85;51.50;98509.00;5034290;28;20032;-76
2023/06/27 02:59:01;;;;;;;4.32;2.50;;;;;;;22.89;51.12;98510.22;5050658;28;20032;-76
2023/06/27 03:01:27;;;;;;;6.45;2.05;;;;;;;22.98;51.30;98510.03;5051954;28;20033;-76
2023/06/27 03:03:52;;;;;;;4.32;2.20;;;;;;;23.10;50.59;98505.78;5034384;28;20067;-76
2023/06/27 03:06:19;;;;;;;5.88;2.40;;;;;;;23.44;50.18;98519.94;5050546;28;20029;-76
2023/06/27 03:08:44;;;;;;;3.50;2.10;;;;;;;23.74;49.26;98519.50;5034426;28;20503;-75
2023/06/27 03:11:10;;;;;;;8.88;2.90;;;;;;;24.07;48.70;98518.63;5050897;28;20065;-76
2023/06/27 03:13:35;;;;;;;6.72;2.83;;;;;;;24.36;47.63;98517.28;5050523;28;20025;-76
2023/06/27 03:16:01;;;;;;;7.88;2.78;;;;;;;24.67;46.41;98513.91;5034391;28;20045;-76
2023/06/27 03:18:27;;;;;;;9.00;2.70;;;;;;;24.95;45.91;98515.34;5051784;28;20040;-76
2023/06/27 03:20:52;;;;;;;7.60;2.42;;;;;;;25.26;44.66;98519.84;5034088;28;20032;-76
2023/06/27 03:23:18;;;;;;;9.50;2.50;;;;;;;25.66;44.31;98524.06;5050908;28;20039;-76
2023/06/27 03:25:43;;;;;;;4.10;2.50;;;;;;;25.99;43.76;98525.63;5050218;28;20025;-76
2023/06/27 03:28:08;;;;;;;9.38;2.65;;;;;;;26.43;42.77;98537.06;5017194;28;20046;-76
2023/06/27 03:30:34;;;;;;;5.50;2.13;;;;;;;26.72;40.91;98523.94;5050686;28;20037;-76
2023/06/27 03:32:59;;;;;;;9.98;2.30;;;;;;;27.07;41.43;98529.41;5050396;28;20052;-70
2023/06/27 03:35:25;;;;;;;8.98;2.53;;;;;;;27.56;40.95;98537.34;5051772;28;20025;-70
2023/06/27 03:37:51;;;;;;;5.30;2.00;;;;;;;28.08;40.47;98546.53;5050694;28;20045;-71
2023/06/27 03:40:17;;;;;;;7.50;2.40;;;;;;;28.62;39.27;98543.63;5051660;28;20032;-71
2023/06/27 03:42:42;;;;;;;7.57;2.13;;;;;;;29.05;38.28;98536.88;5051480;28;20068;-71
2023/06/27 03:45:08;;;;;;;5.65;2.20;;;;;;;29.31;37.20;98538.16;5051099;28;20065;-70
2023/06/27 03:47:34;;;;;;;6.15;2.28;;;;;;;29.71;35.96;98530.94;5017316;28;20542;-70
2023/06/27 03:50:00;;;;;;;8.02;3.60;;;;;;;30.09;35.17;98530.16;5051612;28;20021;-72
2023/06/27 03:52:25;;;;;;;10.25;3.10;;;;;;;30.53;35.25;98542.00;5050668;28;20028;-72
2023/06/27 03:54:51;;;;;;;3.55;2.00;;;;;;;30.85;33.74;98534.81;5051385;28;20167;-68
2023/06/27 03:57:16;;;;;;;6.45;2.00;;;;;;;31.11;33.16;98523.50;5053205;28;20033;-70
2023/06/27 03:59:42;;;;;;;5.20;2.42;;;;;;;31.26;32.52;98531.69;5055135;28;20114;-69
2023/06/27 04:02:07;;;;;;;7.88;4.78;;;;;;;31.46;32.52;98531.03;5054221;28;20037;-69
2023/06/27 04:04:33;;;;;;;8.23;2.47;;;;;;;31.66;31.64;98529.56;5055264;28;20033;-70
2023/06/27 04:06:58;;;;;;;9.75;4.00;;;;;;;31.95;31.46;98540.00;5055175;28;20040;-69
2023/06/27 04:09:24;;;;;;;6.15;2.60;;;;;;;32.10;30.85;98546.34;5053795;28;20045;-69
2023/06/27 04:11:49;;;;;;;11.90;3.40;;;;;;;32.24;31.11;98541.25;5054803;28;20060;-69
2023/06/27 04:14:17;;;;;;;9.85;3.03;;;;;;;32.36;30.75;98532.13;5054807;28;20106;-69
2023/06/27 04:16:43;;;;;;;;;;;;;;;32.75;30.42;98545.22;5037562;28;20037;-69
2023/06/27 04:19:08;;;;;;;10.05;2.53;;;;;;;33.16;29.64;98546.09;5055231;28;19915;-69
2023/06/27 04:21:34;;;;;;;6.97;2.45;;;;;;;33.37;28.93;98538.00;5054875;28;20042;-69
2023/06/27 04:24:00;;;;;;;9.75;2.20;;;;;;;33.53;28.19;98538.81;5053427;28;20037;-69
2023/06/27 04:26:25;;;;;;;9.35;2.35;;;;;;;33.81;28.76;98544.72;5053465;28;20177;-69
2023/06/27 04:28:51;;;;;;;8.63;1.83;;;;;;;34.26;28.44;98545.69;5054797;28;20052;-69
2023/06/27 04:31:16;;;;;;;11.35;2.60;;;;;;;34.63;27.06;98539.00;5054525;28;20044;-69
2023/06/27 04:33:42;;;;;;;9.95;2.00;;;;;;;34.85;27.17;98543.25;5053245;28;20404;-69
2023/06/27 04:36:10;;;;;;;7.10;2.15;;;;;;;35.35;26.57;98545.88;5053349;28;20037;-69
2023/06/27 04:38:38;;;;;;;8.70;2.08;;;;;;;35.69;25.55;98549.34;5053399;28;20095;-69
2023/06/27 04:41:08;;;;;;;6.95;1.90;;;;;;;36.01;25.56;98552.59;5036761;28;20039;-69
2023/06/27 04:43:33;;;;;;;17.05;2.20;;;;;;;36.40;24.83;98568.72;5052803;28;20035;-69
2023/06/27 04:45:59;;;;;;;11.40;2.20;;;;;;;36.63;24.88;98560.78;5054168;28;20025;-68
2023/06/27 04:48:25;;;;;;;7.53;1.90;;;;;;;37.02;24.81;98572.47;5052993;28;20025;-69
2023/06/27 04:50:51;;;;;;;7.22;1.70;;;;;;;37.33;24.88;98566.59;5053876;28;20035;-69
2023/06/27 04:53:19;;;;;;;5.88;1.92;;;;;;;37.62;24.69;98571.78;5036019;28;20017;-69
2023/06/27 04:55:46;;;;;;;5.13;1.55;;;;;;;38.02;24.49;98580.34;5052767;28;20120;-69
2023/06/27 04:58:11;;;;;;;5.13;1.48;;;;;;;38.09;23.66;98579.94;5052933;28;20075;-69
2023/06/27 05:00:37;;;;;;;7.60;1.50;;;;;;;38.30;24.09;98572.19;5036225;28;20064;-72
2023/06/27 05:03:02;;;;;;;5.18;1.75;;;;;;;38.60;23.51;98581.63;5052913;28;20029;-69
2023/06/27 05:05:32;;;;;;;6.00;1.48;;;;;;;38.86;23.38;98576.44;5052877;28;20081;-68
2023/06/27 05:08:00;;;;;;;3.90;1.20;;;;;;;39.13;23.16;98587.59;5053211;28;20444;-68
2023/06/27 05:10:25;;;;;;;5.93;1.60;;;;;;;39.32;22.24;98585.47;5053609;28;20470;-71
2023/06/27 05:12:51;;;;;;;8.27;1.55;;;;;;;39.57;22.85;98588.72;5052571;28;20025;-71
2023/06/27 05:15:16;;;;;;;6.55;1.70;;;;;;;40.40;22.21;98590.03;5035902;28;20377;-71
2023/06/27 05:17:49;;;;;;;7.45;1.98;;;;;;;41.40;21.01;98588.34;5052820;28;20500;-72
2023/06/27 05:20:14;;;;;;;5.07;1.60;;;;;;;42.27;20.38;98581.78;5036362;28;20033;-72
2023/06/27 05:22:40;;;;;;;5.03;1.60;;;;;;;42.94;19.87;98582.78;5052976;28;20037;-71
2023/06/27 05:25:06;;;;;;;6.53;1.60;;;;;;;43.55;19.22;98584.16;5053644;28;20028;-72
2023/06/27 05:27:31;;;;;;;4.07;1.60;;;;;;;44.07;18.93;98583.53;5052329;28;20025;-71
2023/06/27 05:29:57;;;;;;;7.53;1.93;;;;;;;44.57;18.47;98595.31;5053369;28;20445;-71
2023/06/27 05:32:22;;;;;;;5.73;1.40;;;;;;;44.98;17.77;98582.41;5053714;28;20025;-72
2023/06/27 05:34:48;;;;;;;3.50;1.30;;;;;;;45.36;17.87;98584.97;5053508;28;20098;-70
2023/06/27 05:37:13;;;;;;;5.87;1.40;;;;;;;45.73;17.54;98582.81;5035960;28;20068;-71
2023/06/27 05:39:39;;;;;;;3.93;1.20;;;;;;;46.05;17.09;98591.91;5053437;28;20029;-71
2023/06/27 05:42:04;;;;;;;5.57;1.57;;;;;;;46.30;16.90;98588.13;5035832;28;20036;-72
2023/06/27 05:44:30;;;;;;;7.93;1.33;;;;;;;46.52;16.75;98589.41;5052449;28;20032;-70
2023/06/27 05:46:56;;;;;;;5.23;1.43;;;;;;;46.46;16.41;98586.13;5055168;28;20059;-70
2023/06/27 05:49:21;;;;;;;10.23;1.20;;;;;;;46.58;16.67;98588.78;5053346;28;20496;-71
2023/06/27 05:51:47;;;;;;;7.27;1.37;;;;;;;46.86;16.24;98586.97;5035253;28;20044;-71
2023/06/27 05:54:12;;;;;;;4.90;1.30;;;;;;;47.02;16.26;98582.22;5052125;28;20033;-70
2023/06/27 05:56:38;;;;;;;2.92;1.20;;;;;;;47.19;16.10;98577.38;5056892;28;20106;-72
2023/06/27 05:59:04;;;;;;;7.37;1.30;;;;;;;47.34;16.06;98572.97;5058806;28;20079;-72
2023/06/27 06:01:29;;;;;;;6.55;1.38;;;;;;;47.42;15.94;98577.44;5061186;28;20052;-71
2023/06/27 06:03:55;;;;;;;7.90;1.20;;;;;;;47.54;15.95;98576.44;5041775;28;20409;-70
2023/06/27 06:06:20;;;;;;;5.00;1.47;;;;;;;47.65;16.13;98577.44;5054386;28;20058;-71
2023/06/27 06:08:46;;;;;;;2.97;1.10;;;;;;;47.73;16.05;98579.19;5056117;28;20491;-70
2023/06/27 06:11:11;;;;;;;6.50;1.20;;;;;;;47.81;15.65;98580.91;5055579;28;20075;-71
2023/06/27 06:13:37;;;;;;;3.27;1.10;;;;;;;47.89;15.74;98581.81;5032108;28;20131;-72
2023/06/27 06:16:02;;;;;;;2.60;1.10;;;;;;;47.94;15.63;98575.97;5050050;28;20021;-71
2023/06/27 06:18:28;;;;;;;4.07;1.38;;;;;;;48.03;16.06;98578.44;5032552;28;20131;-71
2023/06/27 06:20:54;;;;;;;4.23;1.10;;;;;;;48.06;15.74;98582.47;5050822;28;20044;-71
2023/06/27 06:23:19;;;;;;;;;;;;;;;47.97;16.30;98582.72;5032565;28;20059;-70
2023/06/27 06:25:45;;;;;;;5.23;1.23;;;;;;;48.03;15.97;98574.91;5032133;28;19916;-72
2023/06/27 06:28:10;;;;;;;2.27;1.20;;;;;;;48.03;16.11;98577.66;5036585;28;20064;-71
2023/06/27 06:30:36;;;;;;;4.70;1.20;;;;;;;48.01;16.32;98581.63;5032198;28;20059;-71
2023/06/27 06:33:01;;;;;;;3.10;1.20;;;;;;;47.94;16.34;98573.19;5045200;28;20053;-71
2023/06/27 06:35:27;;;;;;;6.63;1.40;;;;;;;47.91;16.35;98576.69;5018103;28;20053;-74
2023/06/27 06:37:53;;;;;;;5.03;1.43;;;;;;;47.89;16.28;98581.81;5044887;28;20470;-74
2023/06/27 06:40:19;;;;;;;3.35;1.30;;;;;;;47.84;16.26;98576.56;5055849;28;20502;-74
2023/06/27 06:42:44;;;;;;;3.93;1.10;;;;;;;47.81;16.32;98577.34;5043959;28;20098;-75
2023/06/27 06:45:10;;;;;;;3.60;0.93;;;;;;;47.77;16.40;98577.28;5062229;28;20072;-73
2023/06/27 06:47:35;;;;;;;3.72;1.10;;;;;;;47.74;16.45;98583.53;5043259;28;20028;-73
2023/06/27 06:50:01;;;;;;;5.17;1.20;;;;;;;47.68;16.31;98575.94;5030914;28;20485;-73
2023/06/27 06:52:26;;;;;;;3.73;1.03;;;;;;;47.54;16.49;98577.28;5014137;28;20053;-77
2023/06/27 06:54:52;;;;;;;2.97;1.23;;;;;;;47.53;16.24;98580.41;4998035;28;20488;-77
2023/06/27 06:57:17;;;;;;;3.73;1.27;;;;;;;47.40;16.60;98572.28;5011528;28;20080;-72
2023/06/27 06:59:44;;;;;;;3.97;0.90;;;;;;;47.31;16.74;98571.72;5038722;28;20044;-73
2023/06/27 07:02:09;;;;;;;4.72;1.10;;;;;;;47.26;17.00;98567.25;5031337;28;20037;-72
2023/06/27 07:04:35;;;;;;;5.67;1.30;;;;;;;47.17;17.17;98569.47;5031166;28;20079;-74
2023/06/27 07:07:00;;;;;;;2.83;1.10;;;;;;;47.09;16.88;98567.75;5015061;28;20405;-73
2023/06/27 07:09:28;;;;;;;3.07;0.93;;;;;;;46.99;17.10;98568.31;5031122;28;20473;-73
2023/06/27 07:11:54;;;;;;;3.42;1.05;;;;;;;46.85;17.37;98566.84;4998541;28;20022;-75
2023/06/27 07:14:20;;;;;;;6.17;1.40;;;;;;;46.78;17.29;98566.69;5014854;28;20036;-73
2023/06/27 07:16:45;;;;;;;4.80;1.45;;;;;;;46.61;17.39;98569.91;5030871;28;20475;-74
2023/06/27 07:19:11;;;;;;;5.53;1.57;;;;;;;46.51;17.12;98572.06;5032365;28;20037;-71
2023/06/27 07:21:37;;;;;;;4.90;1.33;;;;;;;46.46;17.28;98566.81;5032056;28;20056;-71
2023/06/27 07:24:03;;;;;;;3.28;1.20;;;;;;;46.38;17.54;98571.38;5030892;28;20025;-71
2023/06/27 07:26:29;;;;;;;;;;;;;;;46.21;17.57;98566.25;5031209;28;20413;-70
2023/06/27 07:28:54;;;;;;;5.93;1.30;;;;;;;46.12;17.72;98571.16;5030458;28;19924;-70
2023/06/27 07:31:20;;;;;;;8.70;1.50;;;;;;;46.01;17.81;98571.69;4997857;28;20273;-71
2023/06/27 07:33:45;;;;;;;5.40;1.63;;;;;;;45.47;15.91;98570.34;5035744;28;20025;-71
2023/06/27 07:36:11;;;;;;;4.57;1.50;;;;;;;45.29;16.20;98571.81;5034566;28;20029;-70
2023/06/27 07:38:36;;;;;;;8.30;1.63;;;;;;;45.20;16.33;98562.91;5034559;28;20428;-70
2023/06/27 07:41:02;;;;;;;5.87;1.47;;;;;;;45.16;16.39;98566.34;5001761;28;20044;-70
2023/06/27 07:43:27;;;;;;;7.20;1.77;;;;;;;45.09;17.28;98568.13;5037266;28;20394;-75
2023/06/27 07:45:53;;;;;;;4.27;1.40;;;;;;;44.96;17.21;98559.09;5001945;28;20451;-81
2023/06/27 07:48:18;;;;;;;8.83;1.73;;;;;;;44.89;17.06;98569.91;5035792;28;20029;-81
2023/06/27 07:50:44;;;;;;;3.90;1.50;;;;;;;44.76;17.60;98558.94;5036516;28;20076;-91
2023/06/27 07:53:09;;;;;;;2.50;1.27;;;;;;;44.65;17.73;98560.59;5018123;28;20473;-85
2023/06/27 07:55:36;;;;;;;7.30;1.57;;;;;;;44.53;17.72;98566.88;5001429;28;20037;-85
2023/06/27 07:58:02;;;;;;;7.30;1.60;;;;;;;44.39;17.35;98560.97;5018478;28;20055;-78
2023/06/27 08:00:28;;;;;;;17.87;1.50;;;;;;;44.08;16.82;98562.34;5035465;28;20457;-83
2023/06/27 08:02:53;;;;;;;5.40;1.43;;;;;;;43.88;17.22;98548.38;5034678;28;20268;-86
2023/06/27 08:05:19;;;;;;;6.30;1.30;;;;;;;43.92;17.48;98554.00;5008454;28;20080;-83
2023/06/27 08:07:44;;;;;;;7.00;1.53;;;;;;;43.93;17.79;98552.84;5043723;28;20032;-84
2023/06/27 08:10:11;;;;;;;7.10;1.67;;;;;;;43.86;17.96;98558.91;5045928;28;20420;-83
2023/06/27 08:12:37;;;;;;;2.70;1.30;;;;;;;42.95;19.06;98559.69;5042886;28;20064;-79
2023/06/27 08:15:03;;;;;;;8.97;1.70;;;;;;;42.43;19.53;98558.13;5026321;28;20052;-77
2023/06/27 08:17:29;;;;;;;3.33;1.30;;;;;;;42.43;19.19;98557.31;5046132;28;20056;-78
2023/06/27 08:19:55;;;;;;;3.67;1.23;;;;;;;41.80;19.97;98562.63;5047073;28;20419;-78
2023/06/27 08:22:20;;;;;;;3.87;1.30;;;;;;;41.22;21.00;98565.63;5035603;28;20027;-78
2023/06/27 08:24:46;;;;;;;9.40;1.87;;;;;;;40.76;21.60;98556.94;5053367;28;20404;-76
2023/06/27 08:27:11;;;;;;;8.50;1.80;;;;;;;40.65;21.54;98563.88;5052887;28;20033;-76
2023/06/27 08:29:37;;;;;;;13.18;1.38;;;;;;;40.86;21.22;98559.41;5037382;28;20134;-77
2023/06/27 08:32:02;;;;;;;3.65;1.38;;;;;;;40.73;21.54;98560.34;5053651;28;20029;-77
2023/06/27 08:34:33;;;;;;;5.30;1.42;;;;;;;40.74;21.49;98563.84;5053592;28;20041;-80
2023/06/27 08:36:59;;;;;;;5.63;1.50;;;;;;;40.80;21.86;98560.66;5037797;28;20037;-76
2023/06/27 08:39:26;;;;;;;7.47;1.50;;;;;;;40.29;22.39;98546.56;5053059;28;20385;-76
2023/06/27 08:41:51;;;;;;;5.60;1.58;;;;;;;40.59;22.41;98552.28;5036986;28;20040;-75
2023/06/27 08:44:17;;;;;;;9.02;1.40;;;;;;;40.73;22.42;98563.06;5052278;28;20037;-77
2023/06/27 08:46:43;;;;;;;4.97;1.70;;;;;;;40.78;22.17;98556.63;5020173;28;20083;-78
2023/06/27 08:49:08;;;;;;;4.68;1.42;;;;;;;40.75;22.28;98549.88;5020699;28;20045;-76
2023/06/27 08:51:34;;;;;;;3.80;1.63;;;;;;;40.66;22.59;98549.88;5020344;28;20040;-76
2023/06/27 08:54:05;;;;;;;2.53;1.40;;;;;;;40.59;22.73;98554.22;5035258;28;20080;-75
2023/06/27 08:56:30;;;;;;;3.17;1.40;;;;;;;40.60;22.99;98544.88;5019469;28;20029;-76
2023/06/27 08:59:02;;;;;;;6.60;1.40;;;;;;;40.74;23.06;98542.78;5036229;28;20039;-75
2023/06/27 09:01:31;;;;;;;3.53;1.60;;;;;;;40.81;22.95;98548.56;5053051;28;20025;-76
2023/06/27 09:03:56;;;;;;;3.75;1.45;;;;;;;40.26;23.63;98543.66;5036547;28;20053;-77
2023/06/27 09:06:22;;;;;;;6.40;1.70;;;;;;;39.96;23.63;98546.13;5036270;28;20511;-75
2023/06/27 09:08:47;;;;;;;2.67;1.50;;;;;;;39.72;23.78;98549.25;5036115;28;20033;-76
2023/06/27 09:11:14;;;;;;;6.38;1.90;;;;;;;39.48;24.17;98555.06;5019605;28;20455;-77
2023/06/27 09:13:39;;;;;;;2.63;1.25;;;;;;;39.18;24.24;98552.78;5036405;28;20537;-76
2023/06/27 09:16:05;;;;;;;3.70;1.40;;;;;;;38.91;24.87;98548.25;5036130;28;20029;-75
2023/06/27 09:18:31;;;;;;;4.13;1.50;;;;;;;38.90;24.83;98546.63;5036085;28;20028;-76
2023/06/27 09:20:57;;;;;;;3.80;1.55;;;;;;;38.58;25.48;98548.41;5036062;28;20399;-77
2023/06/27 09:23:23;;;;;;;2.47;1.38;;;;;;;38.28;25.80;98547.16;5020173;28;20047;-76
2023/06/27 09:26:09;;;;;;;2.53;1.33;;;;;;;38.04;26.02;98544.63;5019822;28;20032;-75
2023/06/27 09:28:45;;;;;;;4.53;1.52;;;;;;;37.79;26.45;98549.47;5052309;28;20049;-78
2023/06/27 09:31:10;;;;;;;2.75;1.30;;;;;;;37.59;26.69;98537.00;5052246;28;20401;-76
2023/06/27 09:33:36;;;;;;;3.35;1.60;;;;;;;37.44;27.26;98555.22;5018985;28;20036;-76
2023/06/27 09:36:02;;;;;;;3.45;1.60;;;;;;;37.29;27.38;98548.13;5053596;28;20173;-77
2023/06/27 09:38:31;;;;;;;3.08;1.77;;;;;;;37.21;27.71;98543.38;5019408;28;20508;-78
2023/06/27 09:41:03;;;;;;;3.75;1.50;;;;;;;37.37;27.22;98541.22;5035846;28;20476;-77
2023/06/27 09:43:31;;;;;;;5.15;1.50;;;;;;;37.40;27.36;98542.50;5053291;28;20037;-75
2023/06/27 09:45:58;;;;;;;2.75;1.33;;;;;;;37.50;27.36;98536.88;5052086;28;20071;-78
2023/06/27 09:48:24;;;;;;;7.20;1.60;;;;;;;37.61;27.41;98535.59;5053495;28;20037;-75
2023/06/27 09:50:49;;;;;;;2.83;1.40;;;;;;;37.65;27.24;98531.19;5035450;28;20036;-77
2023/06/27 09:53:15;;;;;;;5.07;1.58;;;;;;;37.73;27.07;98529.66;5018748;28;20538;-75
2023/06/27 09:55:45;;;;;;;4.20;1.50;;;;;;;37.80;27.27;98529.28;5034793;28;20029;-75
2023/06/27 09:58:11;;;;;;;3.65;1.35;;;;;;;37.69;27.22;98525.16;5034343;28;20075;-76
2023/06/27 10:00:37;;;;;;;2.78;1.38;;;;;;;37.47;27.56;98542.94;5018260;28;20072;-75
2023/06/27 10:03:02;;;;;;;2.45;1.42;;;;;;;37.30;28.15;98535.31;5035032;28;20508;-75
2023/06/27 10:05:28;;;;;;;2.10;1.30;;;;;;;37.16;28.06;98537.97;5034992;28;20071;-76
2023/06/27 10:07:54;;;;;;;3.13;1.55;;;;;;;36.95;28.37;98534.78;5052935;28;20396;-75
2023/06/27 10:10:19;;;;;;;4.07;1.42;;;;;;;36.84;28.61;98525.16;5051860;28;20531;-76
2023/06/27 10:12:45;;;;;;;3.50;1.33;;;;;;;36.88;28.71;98529.72;5018554;28;20037;-76
2023/06/27 10:15:11;;;;;;;1.95;1.40;;;;;;;36.87;28.67;98521.84;5034836;28;20029;-76
2023/06/27 10:17:36;;;;;;;2.28;1.30;;;;;;;36.87;28.75;98525.38;5034840;28;20120;-76
2023/06/27 10:20:04;;;;;;;2.63;1.58;;;;;;;36.80;28.98;98530.41;5018326;28;20040;-77
2023/06/27 10:22:31;;;;;;;2.20;1.40;;;;;;;36.75;28.81;98535.88;5035179;28;20044;-76
2023/06/27 10:25:00;;;;;;;1.70;1.30;;;;;;;36.68;28.83;98535.44;5018460;28;20039;-75
2023/06/27 10:27:26;;;;;;;2.60;1.33;;;;;;;36.53;28.79;98529.13;5018303;28;20031;-75
2023/06/27 10:29:51;;;;;;;2.95;1.45;;;;;;;36.35;29.10;98521.75;5034678;28;20065;-76
2023/06/27 10:32:20;;;;;;;2.40;1.42;;;;;;;36.19;29.28;98523.81;5051164;28;20029;-76
2023/06/27 10:34:47;;;;;;;2.58;1.40;;;;;;;36.04;29.48;98522.91;5019229;28;20048;-76
2023/06/27 10:37:25;;;;;;;3.95;1.67;;;;;;;35.81;29.62;98512.88;5051676;28;20029;-75
2023/06/27 10:40:00;;;;;;;3.15;1.30;;;;;;;35.67;29.77;98510.00;5051159;28;20033;-75
2023/06/27 10:42:27;;;;;;;3.22;1.63;;;;;;;35.55;30.16;98517.72;5034926;28;20036;-75
2023/06/27 10:44:56;;;;;;;2.60;1.50;;;;;;;35.54;30.12;98510.69;5034633;28;20123;-76
2023/06/27 10:47:26;;;;;;;2.25;1.50;;;;;;;35.57;30.03;98508.22;5052427;28;20125;-76
2023/06/27 10:49:53;;;;;;;2.25;1.40;;;;;;;35.52;29.99;98516.41;5034582;28;20045;-75
2023/06/27 10:52:25;;;;;;;2.15;1.40;;;;;;;35.51;29.84;98499.28;5017881;28;20032;-76
2023/06/27 10:55:15;;;;;;;2.75;1.50;;;;;;;35.54;29.73;98499.84;5034134;28;20037;-75
2023/06/27 10:57:42;;;;;;;2.40;1.60;;;;;;;35.44;29.67;98492.59;5052314;28;20059;-75
2023/06/27 11:00:13;;;;;;;4.47;1.50;;;;;;;35.46;29.44;98501.28;5017816;28;20036;-76
2023/06/27 11:02:41;;;;;;;4.07;1.40;;;;;;;35.43;29.35;98493.69;5034028;28;20090;-75
2023/06/27 11:05:16;;;;;;;2.08;1.50;;;;;;;35.37;29.57;98492.94;5050640;28;20508;-75
2023/06/27 11:07:51;;;;;;;2.85;1.70;;;;;;;35.37;29.19;98487.50;5034534;28;20452;-77
2023/06/27 11:10:26;;;;;;;1.92;1.50;;;;;;;35.38;29.17;98489.13;5034135;28;20025;-75
2023/06/27 11:13:23;;;;;;;4.18;1.40;;;;;;;35.27;28.86;98476.75;5017976;28;20025;-75
2023/06/27 11:15:50;;;;;;;2.97;1.73;;;;;;;35.36;28.84;98485.06;5050485;28;20128;-74
2023/06/27 11:18:16;;;;;;;2.90;1.55;;;;;;;35.37;28.94;98479.38;5034387;28;20041;-76
2023/06/27 11:20:42;;;;;;;3.45;1.45;;;;;;;35.40;29.01;98480.72;5034206;28;20071;-76
2023/06/27 11:23:08;;;;;;;3.08;1.70;;;;;;;35.42;29.18;98475.78;5050581;28;20021;-76
2023/06/27 11:25:38;;;;;;;2.97;1.58;;;;;;;35.35;29.71;98475.34;5017490;28;20025;-76
2023/06/27 11:28:04;;;;;;;5.32;1.55;;;;;;;35.29;29.20;98471.84;5033738;28;20126;-76
2023/06/27 11:30:30;;;;;;;3.17;1.40;;;;;;;35.31;29.39;98475.06;5050634;28;20484;-75
2023/06/27 11:32:56;;;;;;;2.70;1.40;;;;;;;35.38;29.23;98469.34;5017599;28;20040;-76